createdAt,value
2018-01-13T00:00:50.482Z,1008.96
2018-01-13T00:02:00.540Z,1008.9
2018-01-13T00:03:10.587Z,1008.96
2018-01-13T00:04:20.626Z,1008.95
2018-01-13T00:05:30.428Z,1008.96
2018-01-13T00:06:40.479Z,1008.92
2018-01-13T00:07:50.012Z,1008.97
2018-01-13T00:09:00.074Z,1008.99
2018-01-13T00:10:09.868Z,1008.94
2018-01-13T00:11:19.652Z,1008.95
2018-01-13T00:12:29.213Z,1008.94
2018-01-13T00:13:39.005Z,1008.96
2018-01-13T00:14:50.696Z,1008.97
2018-01-13T00:16:00.748Z,1009
2018-01-13T00:17:10.813Z,1008.94
2018-01-13T00:18:20.878Z,1008.96
2018-01-13T00:19:30.952Z,1008.92
2018-01-13T00:20:40.743Z,1008.94
2018-01-13T00:21:50.522Z,1008.92
2018-01-13T00:23:00.555Z,1008.94
2018-01-13T00:24:10.659Z,1008.94
2018-01-13T00:25:20.768Z,1008.91
2018-01-13T00:26:30.794Z,1008.94
2018-01-13T00:27:40.839Z,1008.93
2018-01-13T00:28:50.644Z,1008.94
2018-01-13T00:30:00.756Z,1008.95
2018-01-13T00:31:10.324Z,1008.89
2018-01-13T00:32:20.364Z,1008.89
2018-01-13T00:33:30.152Z,1008.88
2018-01-13T00:34:40.188Z,1008.85
2018-01-13T00:35:50.236Z,1008.84
2018-01-13T00:37:00.282Z,1008.84
2018-01-13T00:38:10.053Z,1008.84
2018-01-13T00:39:20.107Z,1008.83
2018-01-13T00:40:29.642Z,1008.83
2018-01-13T00:41:39.473Z,1008.86
2018-01-13T00:42:49.541Z,1008.81
2018-01-13T00:43:59.572Z,1008.85
2018-01-13T00:45:10.864Z,1008.78
2018-01-13T00:46:20.910Z,1008.77
2018-01-13T00:47:30.801Z,1008.81
2018-01-13T00:48:40.854Z,1008.81
2018-01-13T00:49:50.904Z,1008.75
2018-01-13T00:51:00.686Z,1008.84
2018-01-13T00:52:10.488Z,1008.84
2018-01-13T00:53:20.582Z,1008.84
2018-01-13T00:54:30.646Z,1008.86
2018-01-13T00:55:40.738Z,1008.92
2018-01-13T00:56:50.525Z,1008.9
2018-01-13T00:58:00.575Z,1008.91
2018-01-13T00:59:11.075Z,1008.9
2018-01-13T01:00:20.847Z,1008.93
2018-01-13T01:01:30.907Z,1008.93
2018-01-13T01:02:40.936Z,1008.89
2018-01-13T01:03:50.980Z,1008.92
2018-01-13T01:05:01.069Z,1008.9
2018-01-13T01:06:10.846Z,1008.93
2018-01-13T01:07:20.903Z,1008.91
2018-01-13T01:08:30.961Z,1008.92
2018-01-13T01:09:40.750Z,1008.89
2018-01-13T01:10:50.838Z,1008.89
2018-01-13T01:12:00.891Z,1008.85
2018-01-13T01:13:10.689Z,1008.88
2018-01-13T01:14:20.726Z,1008.9
2018-01-13T01:15:30.759Z,1008.88
2018-01-13T01:16:40.805Z,1008.88
2018-01-13T01:17:50.594Z,1008.88
2018-01-13T01:19:00.647Z,1008.86
2018-01-13T01:20:10.677Z,1008.9
2018-01-13T01:21:20.741Z,1008.9
2018-01-13T01:22:30.838Z,1008.89
2018-01-13T01:23:40.870Z,1008.86
2018-01-13T01:24:50.909Z,1008.89
2018-01-13T01:26:00.940Z,1008.89
2018-01-13T01:27:10.725Z,1008.87
2018-01-13T01:28:20.774Z,1008.88
2018-01-13T01:29:30.565Z,1008.9
2018-01-13T01:30:40.621Z,1008.9
2018-01-13T01:31:50.666Z,1008.9
2018-01-13T01:33:00.455Z,1008.94
2018-01-13T01:34:10.481Z,1008.91
2018-01-13T01:35:20.518Z,1008.93
2018-01-13T01:36:30.299Z,1008.88
2018-01-13T01:37:40.090Z,1008.93
2018-01-13T01:38:50.130Z,1008.88
2018-01-13T01:40:00.213Z,1008.92
2018-01-13T01:41:09.995Z,1008.91
2018-01-13T01:42:20.033Z,1008.89
2018-01-13T01:43:30.084Z,1008.95
2018-01-13T01:44:40.113Z,1008.93
2018-01-13T01:45:49.903Z,1008.93
2018-01-13T01:46:59.959Z,1008.94
2018-01-13T01:48:10.013Z,1008.94
2018-01-13T01:49:19.794Z,1008.95
2018-01-13T01:50:29.844Z,1008.96
2018-01-13T01:51:39.669Z,1009
2018-01-13T01:52:49.450Z,1008.95
2018-01-13T01:53:59.509Z,1009
2018-01-13T01:55:09.301Z,1008.96
2018-01-13T01:56:19.365Z,1008.99
2018-01-13T01:57:29.408Z,1008.98
2018-01-13T01:58:40.701Z,1008.99
2018-01-13T01:59:50.769Z,1009.01
2018-01-13T02:01:00.806Z,1008.97
2018-01-13T02:02:10.868Z,1009
2018-01-13T02:03:20.970Z,1009.04
2018-01-13T02:04:31.021Z,1008.97
2018-01-13T02:05:40.806Z,1009.01
2018-01-13T02:06:50.869Z,1009
2018-01-13T02:08:00.929Z,1008.99
2018-01-13T02:09:11.026Z,1009.05
2018-01-13T02:10:23.578Z,1009.01
2018-01-13T02:11:33.625Z,1008.99
2018-01-13T02:12:43.422Z,1009.01
2018-01-13T02:13:53.464Z,1009.05
2018-01-13T02:15:03.527Z,1009.02
2018-01-13T02:16:13.366Z,1009.05
2018-01-13T02:17:23.164Z,1009.1
2018-01-13T02:18:33.319Z,1009.1
2018-01-13T02:19:43.363Z,1009.09
2018-01-13T02:20:53.186Z,1009.07
2018-01-13T02:22:04.293Z,1009.09
2018-01-13T02:23:14.343Z,1009.05
2018-01-13T02:24:23.869Z,1009.05
2018-01-13T02:25:33.920Z,1009.05
2018-01-13T02:26:43.973Z,1009.08
2018-01-13T02:27:54.476Z,1009.01
2018-01-13T02:29:04.262Z,1009.03
2018-01-13T02:30:15.450Z,1008.99
2018-01-13T02:31:25.481Z,1009.04
2018-01-13T02:32:35.268Z,1009.01
2018-01-13T02:33:45.053Z,1008.97
2018-01-13T02:34:55.130Z,1008.94
2018-01-13T02:36:04.895Z,1008.98
2018-01-13T02:37:14.670Z,1009
2018-01-13T02:38:24.769Z,1008.99
2018-01-13T02:39:34.823Z,1008.95
2018-01-13T02:40:44.878Z,1008.92
2018-01-13T02:41:54.940Z,1008.94
2018-01-13T02:43:04.724Z,1008.94
2018-01-13T02:44:14.815Z,1008.94
2018-01-13T02:45:24.859Z,1008.93
2018-01-13T02:46:34.907Z,1008.92
2018-01-13T02:47:44.944Z,1008.89
2018-01-13T02:48:55.001Z,1008.93
2018-01-13T02:50:04.788Z,1008.93
2018-01-13T02:51:14.572Z,1008.96
2018-01-13T02:52:24.630Z,1008.93
2018-01-13T02:53:34.677Z,1008.89
2018-01-13T02:54:44.735Z,1008.91
2018-01-13T02:55:54.833Z,1008.88
2018-01-13T02:57:04.614Z,1008.9
2018-01-13T02:58:14.421Z,1008.91
2018-01-13T02:59:24.223Z,1008.86
2018-01-13T03:00:34.285Z,1008.87
2018-01-13T03:01:43.815Z,1008.84
2018-01-13T03:33:47.859Z,1008.57
2018-01-13T03:34:57.916Z,1008.6
2018-01-13T03:36:07.942Z,1008.55
2018-01-13T03:37:17.988Z,1008.55
2018-01-13T03:38:28.025Z,1008.53
2018-01-13T03:39:37.596Z,1008.52
2018-01-13T03:40:47.639Z,1008.51
2018-01-13T03:41:57.735Z,1008.47
2018-01-13T03:43:07.789Z,1008.47
2018-01-13T03:44:18.272Z,1008.49
2018-01-13T03:45:28.407Z,1008.54
2018-01-13T03:46:38.186Z,1008.57
2018-01-13T03:47:47.967Z,1008.57
2018-01-13T03:48:59.270Z,1008.5
2018-01-13T03:50:08.792Z,1008.55
2018-01-13T03:51:18.835Z,1008.56
2018-01-13T03:52:28.872Z,1008.57
2018-01-13T03:53:38.926Z,1008.58
2018-01-13T03:54:48.969Z,1008.59
2018-01-13T03:55:59.032Z,1008.61
2018-01-13T03:57:09.132Z,1008.6
2018-01-13T03:58:18.922Z,1008.59
2018-01-13T03:59:28.968Z,1008.57
2018-01-13T04:00:39.008Z,1008.61
2018-01-13T04:01:49.054Z,1008.63
2018-01-13T04:02:59.143Z,1008.61
2018-01-13T04:04:09.337Z,1008.64
2018-01-13T04:05:19.370Z,1008.63
2018-01-13T04:06:29.415Z,1008.65
2018-01-13T04:07:39.444Z,1008.66
2018-01-13T04:08:49.531Z,1008.68
2018-01-13T04:09:59.621Z,1008.66
2018-01-13T04:11:09.689Z,1008.68
2018-01-13T04:12:19.470Z,1008.66
2018-01-13T04:13:29.242Z,1008.67
2018-01-13T04:14:39.283Z,1008.71
2018-01-13T04:15:49.347Z,1008.67
2018-01-13T04:16:59.455Z,1008.66
2018-01-13T04:18:09.235Z,1008.72
2018-01-13T04:19:19.273Z,1008.7
2018-01-13T04:20:29.313Z,1008.74
2018-01-13T04:21:39.105Z,1008.68
2018-01-13T04:22:48.877Z,1008.7
2018-01-13T04:23:58.133Z,1008.71
2018-01-13T04:25:08.167Z,1008.69
2018-01-13T04:26:18.260Z,1008.71
2018-01-13T04:27:28.052Z,1008.66
2018-01-13T04:28:38.086Z,1008.68
2018-01-13T04:29:48.125Z,1008.66
2018-01-13T04:30:57.913Z,1008.66
2018-01-13T04:32:08.054Z,1008.7
2018-01-13T04:33:18.108Z,1008.72
2018-01-13T04:34:28.347Z,1008.72
2018-01-13T04:35:38.391Z,1008.7
2018-01-13T04:36:48.429Z,1008.72
2018-01-13T04:37:58.468Z,1008.7
2018-01-13T04:39:08.250Z,1008.68
2018-01-13T04:40:18.037Z,1008.69
2018-01-13T04:41:28.080Z,1008.72
2018-01-13T04:42:38.126Z,1008.72
2018-01-13T04:43:47.906Z,1008.71
2018-01-13T04:44:57.699Z,1008.7
2018-01-13T04:46:07.230Z,1008.73
2018-01-13T04:47:17.321Z,1008.71
2018-01-13T04:48:27.105Z,1008.74
2018-01-13T04:49:37.193Z,1008.78
2018-01-13T04:50:47.238Z,1008.73
2018-01-13T04:51:57.297Z,1008.7
2018-01-13T04:53:07.341Z,1008.7
2018-01-13T04:54:17.380Z,1008.77
2018-01-13T04:55:27.169Z,1008.75
2018-01-13T04:56:36.986Z,1008.77
2018-01-13T04:57:47.083Z,1008.78
2018-01-13T04:58:57.142Z,1008.76
2018-01-13T05:00:07.205Z,1008.79
2018-01-13T05:01:17.082Z,1008.82
2018-01-13T05:02:27.146Z,1008.81
2018-01-13T05:03:38.039Z,1008.83
2018-01-13T05:04:48.469Z,1008.82
2018-01-13T05:05:58.547Z,1008.86
2018-01-13T05:07:09.933Z,1008.82
2018-01-13T05:08:19.982Z,1008.82
2018-01-13T05:09:30.033Z,1008.81
2018-01-13T05:10:40.057Z,1008.84
2018-01-13T05:11:49.595Z,1008.84
2018-01-13T05:12:59.686Z,1008.8
2018-01-13T05:14:09.729Z,1008.8
2018-01-13T05:15:20.883Z,1008.81
2018-01-13T05:16:30.916Z,1008.75
2018-01-13T05:17:40.965Z,1008.84
2018-01-13T05:18:51.021Z,1008.8
2018-01-13T05:20:01.083Z,1008.83
2018-01-13T05:21:11.129Z,1008.82
2018-01-13T05:22:20.661Z,1008.84
2018-01-13T05:23:30.721Z,1008.86
2018-01-13T05:24:40.759Z,1008.88
2018-01-13T05:25:50.548Z,1008.9
2018-01-13T05:27:00.580Z,1008.87
2018-01-13T05:28:10.347Z,1008.86
2018-01-13T05:29:20.120Z,1008.87
2018-01-13T05:30:29.896Z,1008.89
2018-01-13T05:31:39.937Z,1008.91
2018-01-13T05:32:49.996Z,1008.93
2018-01-13T05:34:00.062Z,1008.95
2018-01-13T05:35:10.101Z,1008.94
2018-01-13T05:36:19.874Z,1008.92
2018-01-13T05:37:29.916Z,1008.95
2018-01-13T05:38:39.965Z,1008.98
2018-01-13T05:39:50.012Z,1009.06
2018-01-13T05:40:59.791Z,1009.01
2018-01-13T05:42:09.636Z,1009.06
2018-01-13T05:43:19.413Z,1009.06
2018-01-13T05:44:29.208Z,1009.08
2018-01-13T05:45:39.245Z,1009.05
2018-01-13T05:46:49.287Z,1009.05
2018-01-13T05:47:59.437Z,1009
2018-01-13T05:49:08.974Z,1009.05
2018-01-13T05:50:18.484Z,1009.01
2018-01-13T05:51:28.543Z,1008.99
2018-01-13T05:52:38.575Z,1009.03
2018-01-13T05:53:48.408Z,1009.03
2018-01-13T05:54:58.229Z,1009.01
2018-01-13T05:56:08.275Z,1009.04
2018-01-13T05:57:18.069Z,1009.02
2018-01-13T05:58:28.124Z,1009.02
2018-01-13T05:59:37.955Z,1009.01
2018-01-13T06:00:47.762Z,1009.03
2018-01-13T06:01:57.299Z,1009
2018-01-13T06:03:07.076Z,1009.03
2018-01-13T06:04:17.103Z,1009.01
2018-01-13T06:05:26.936Z,1009.03
2018-01-13T06:06:36.980Z,1008.95
2018-01-13T06:07:47.041Z,1009
2018-01-13T06:08:57.086Z,1009
2018-01-13T06:10:07.134Z,1009.01
2018-01-13T06:11:17.181Z,1008.99
2018-01-13T06:12:27.241Z,1008.99
2018-01-13T06:13:37.042Z,1008.97
2018-01-13T06:14:48.448Z,1009.02
2018-01-13T06:15:58.486Z,1008.95
2018-01-13T06:17:08.519Z,1008.95
2018-01-13T06:18:18.304Z,1008.94
2018-01-13T06:19:28.341Z,1008.92
2018-01-13T06:20:38.379Z,1008.91
2018-01-13T06:21:48.422Z,1008.91
2018-01-13T06:22:58.201Z,1008.91
2018-01-13T06:24:08.249Z,1008.9
2018-01-13T06:25:18.289Z,1008.91
2018-01-13T06:26:28.325Z,1008.92
2018-01-13T06:27:38.371Z,1008.92
2018-01-13T06:28:48.211Z,1008.93
2018-01-13T06:29:58.560Z,1008.87
2018-01-13T06:31:08.617Z,1008.88
2018-01-13T06:32:18.706Z,1008.87
2018-01-13T06:33:28.761Z,1008.84
2018-01-13T06:34:38.845Z,1008.88
2018-01-13T06:35:48.882Z,1008.85
2018-01-13T06:36:58.662Z,1008.84
2018-01-13T06:38:08.706Z,1008.86
2018-01-13T06:39:18.747Z,1008.87
2018-01-13T06:40:28.544Z,1008.85
2018-01-13T06:41:38.588Z,1008.83
2018-01-13T06:42:47.868Z,1008.84
2018-01-13T06:43:57.910Z,1008.87
2018-01-13T06:45:07.953Z,1008.86
2018-01-13T06:46:18.810Z,1008.88
2018-01-13T06:47:28.853Z,1008.82
2018-01-13T06:48:38.895Z,1008.86
2018-01-13T06:49:48.931Z,1008.86
2018-01-13T06:50:58.982Z,1008.86
2018-01-13T06:52:09.137Z,1008.91
2018-01-13T06:53:18.910Z,1008.9
2018-01-13T06:54:29.016Z,1008.81
2018-01-13T06:55:38.816Z,1008.88
2018-01-13T06:56:48.860Z,1008.9
2018-01-13T06:57:58.786Z,1008.92
2018-01-13T06:59:08.829Z,1008.92
2018-01-13T07:00:18.872Z,1008.91
2018-01-13T07:01:28.921Z,1008.93
2018-01-13T07:02:38.958Z,1008.89
2018-01-13T07:03:49.000Z,1008.92
2018-01-13T07:04:58.778Z,1008.93
2018-01-13T07:06:08.841Z,1008.94
2018-01-13T07:07:18.928Z,1008.92
2018-01-13T07:08:28.968Z,1008.92
2018-01-13T07:09:38.834Z,1008.98
2018-01-13T07:10:48.641Z,1008.94
2018-01-13T07:11:58.707Z,1008.97
2018-01-13T07:13:08.789Z,1008.94
2018-01-13T07:14:18.582Z,1008.95
2018-01-13T07:15:28.762Z,1008.96
2018-01-13T07:16:40.294Z,1008.98
2018-01-13T07:17:51.396Z,1008.97
2018-01-13T07:19:01.187Z,1008.98
2018-01-13T07:20:10.985Z,1008.94
2018-01-13T07:21:21.085Z,1008.96
2018-01-13T07:22:31.119Z,1008.9
2018-01-13T07:23:41.154Z,1008.92
2018-01-13T07:24:51.208Z,1008.94
2018-01-13T07:26:01.253Z,1008.96
2018-01-13T07:27:11.300Z,1008.97
2018-01-13T07:28:21.346Z,1008.95
2018-01-13T07:29:31.398Z,1008.96
2018-01-13T07:30:41.183Z,1008.96
2018-01-13T07:31:51.229Z,1008.97
2018-01-13T07:33:01.328Z,1008.98
2018-01-13T07:34:11.113Z,1008.96
2018-01-13T07:35:21.159Z,1008.98
2018-01-13T07:36:31.201Z,1008.96
2018-01-13T07:37:41.260Z,1008.97
2018-01-13T07:38:51.088Z,1008.98
2018-01-13T07:40:01.894Z,1008.96
2018-01-13T07:41:11.949Z,1008.98
2018-01-13T07:42:21.731Z,1008.96
2018-01-13T07:43:31.775Z,1008.97
2018-01-13T07:44:41.612Z,1009.01
2018-01-13T07:45:51.658Z,1008.94
2018-01-13T07:47:01.726Z,1009
2018-01-13T07:48:11.780Z,1009.01
2018-01-13T07:49:21.844Z,1008.97
2018-01-13T07:50:31.691Z,1009.01
2018-01-13T07:51:41.236Z,1009.04
2018-01-13T07:52:51.034Z,1009.06
2018-01-13T07:54:01.079Z,1009.05
2018-01-13T07:55:11.192Z,1009.05
2018-01-13T07:56:20.974Z,1009.05
2018-01-13T07:57:30.765Z,1009.05
2018-01-13T07:58:40.826Z,1009.08
2018-01-13T07:59:50.891Z,1009.1
2018-01-13T08:01:00.425Z,1009.05
2018-01-13T08:02:10.498Z,1009.04
2018-01-13T08:03:20.535Z,1009.07
2018-01-13T08:04:30.335Z,1009.07
2018-01-13T08:05:40.126Z,1009.1
2018-01-13T08:06:50.162Z,1009.1
2018-01-13T08:07:59.984Z,1009.13
2018-01-13T08:09:10.026Z,1009.12
2018-01-13T08:10:20.075Z,1009.1
2018-01-13T08:11:30.185Z,1009.11
2018-01-13T08:12:40.223Z,1009.11
2018-01-13T08:13:50.264Z,1009.12
2018-01-13T08:15:00.336Z,1009.13
2018-01-13T08:16:10.374Z,1009.18
2018-01-13T08:17:20.410Z,1009.15
2018-01-13T08:18:30.463Z,1009.17
2018-01-13T08:19:40.266Z,1009.18
2018-01-13T08:20:50.056Z,1009.17
2018-01-13T08:22:00.108Z,1009.21
2018-01-13T08:23:09.650Z,1009.16
2018-01-13T08:24:19.700Z,1009.18
2018-01-13T08:25:30.768Z,1009.19
2018-01-13T08:26:40.296Z,1009.18
2018-01-13T08:27:50.363Z,1009.13
2018-01-13T08:29:00.423Z,1009.16
2018-01-13T08:30:10.923Z,1009.2
2018-01-13T08:31:20.991Z,1009.19
2018-01-13T08:32:30.778Z,1009.19
2018-01-13T08:33:40.812Z,1009.23
2018-01-13T08:34:50.653Z,1009.22
2018-01-13T08:36:00.767Z,1009.27
2018-01-13T08:37:10.868Z,1009.26
2018-01-13T08:38:20.932Z,1009.2
2018-01-13T08:39:30.457Z,1009.28
2018-01-13T08:40:40.537Z,1009.25
2018-01-13T08:41:50.591Z,1009.23
2018-01-13T08:43:00.439Z,1009.2
2018-01-13T08:44:10.499Z,1009.23
2018-01-13T08:45:20.558Z,1009.23
2018-01-13T08:46:30.657Z,1009.24
2018-01-13T08:47:40.450Z,1009.2
2018-01-13T08:48:50.582Z,1009.24
2018-01-13T08:50:00.665Z,1009.26
2018-01-13T08:51:10.454Z,1009.23
2018-01-13T08:52:20.504Z,1009.2
2018-01-13T08:53:30.283Z,1009.23
2018-01-13T08:54:40.082Z,1009.18
2018-01-13T08:55:49.607Z,1009.22
2018-01-13T08:56:59.399Z,1009.21
2018-01-13T08:58:09.460Z,1009.22
2018-01-13T08:59:19.517Z,1009.25
2018-01-13T09:00:29.563Z,1009.23
2018-01-13T09:01:39.622Z,1009.23
2018-01-13T09:02:49.421Z,1009.21
2018-01-13T09:03:59.471Z,1009.22
2018-01-13T09:05:09.271Z,1009.19
2018-01-13T09:06:19.340Z,1009.21
2018-01-13T09:07:29.433Z,1009.26
2018-01-13T09:08:39.228Z,1009.26
2018-01-13T09:09:49.281Z,1009.23
2018-01-13T09:10:59.354Z,1009.25
2018-01-13T09:12:09.483Z,1009.22
2018-01-13T09:13:19.549Z,1009.21
2018-01-13T09:14:29.582Z,1009.21
2018-01-13T09:15:39.648Z,1009.22
2018-01-13T09:16:49.690Z,1009.2
2018-01-13T09:17:59.800Z,1009.22
2018-01-13T09:19:09.844Z,1009.24
2018-01-13T09:20:19.912Z,1009.2
2018-01-13T09:21:29.954Z,1009.24
2018-01-13T09:22:39.782Z,1009.23
2018-01-13T09:23:49.830Z,1009.17
2018-01-13T09:24:59.875Z,1009.2
2018-01-13T09:26:09.984Z,1009.24
2018-01-13T09:27:20.059Z,1009.21
2018-01-13T09:28:30.116Z,1009.21
2018-01-13T09:29:40.765Z,1009.24
2018-01-13T09:30:50.527Z,1009.21
2018-01-13T09:32:00.588Z,1009.2
2018-01-13T09:33:10.667Z,1009.24
2018-01-13T09:34:20.473Z,1009.22
2018-01-13T09:35:30.516Z,1009.2
2018-01-13T09:36:40.569Z,1009.19
2018-01-13T09:37:50.624Z,1009.18
2018-01-13T09:39:01.672Z,1009.22
2018-01-13T09:40:11.722Z,1009.21
2018-01-13T09:41:21.576Z,1009.18
2018-01-13T09:42:31.641Z,1009.2
2018-01-13T09:43:41.744Z,1009.19
2018-01-13T09:44:51.270Z,1009.15
2018-01-13T09:46:01.379Z,1009.17
2018-01-13T09:47:11.293Z,1009.11
2018-01-13T09:48:21.342Z,1009.09
2018-01-13T09:49:31.406Z,1009.13
2018-01-13T09:50:41.468Z,1009.17
2018-01-13T09:51:52.819Z,1009.18
2018-01-13T09:53:02.928Z,1009.24
2018-01-13T09:54:12.976Z,1009.2
2018-01-13T09:55:23.571Z,1009.24
2018-01-13T09:56:33.372Z,1009.25
2018-01-13T09:57:43.174Z,1009.23
2018-01-13T09:58:53.220Z,1009.18
2018-01-13T10:00:03.269Z,1009.18
2018-01-13T10:01:13.319Z,1009.25
2018-01-13T10:02:23.377Z,1009.2
2018-01-13T10:03:33.465Z,1009.21
2018-01-13T10:04:43.482Z,1009.23
2018-01-13T10:05:53.615Z,1009.2
2018-01-13T10:07:03.728Z,1009.15
2018-01-13T10:08:13.829Z,1009.19
2018-01-13T10:09:23.877Z,1009.18
2018-01-13T10:10:33.659Z,1009.18
2018-01-13T10:11:43.721Z,1009.18
2018-01-13T10:12:53.512Z,1009.16
2018-01-13T10:14:03.315Z,1009.14
2018-01-13T10:15:13.357Z,1009.11
2018-01-13T10:16:23.442Z,1009.07
2018-01-13T10:17:33.484Z,1009.09
2018-01-13T10:18:43.521Z,1009.08
2018-01-13T10:19:53.563Z,1009.1
2018-01-13T10:21:05.376Z,1009.08
2018-01-13T10:22:14.985Z,1009.08
2018-01-13T10:23:25.071Z,1009.03
2018-01-13T10:24:35.117Z,1009.08
2018-01-13T10:25:44.915Z,1009.02
2018-01-13T10:26:54.962Z,1009
2018-01-13T10:28:05.062Z,1009.01
2018-01-13T10:29:15.110Z,1009.03
2018-01-13T10:30:25.150Z,1008.97
2018-01-13T10:31:35.198Z,1008.99
2018-01-13T10:32:45.281Z,1008.98
2018-01-13T10:33:55.330Z,1008.98
2018-01-13T10:35:05.387Z,1008.97
2018-01-13T10:36:16.084Z,1008.99
2018-01-13T10:37:26.150Z,1008.95
2018-01-13T10:38:36.203Z,1008.99
2018-01-13T10:39:46.241Z,1008.97
2018-01-13T10:40:56.289Z,1008.97
2018-01-13T10:42:06.335Z,1008.98
2018-01-13T10:43:16.137Z,1008.95
2018-01-13T10:44:26.198Z,1008.91
2018-01-13T10:45:36.301Z,1008.87
2018-01-13T10:46:46.088Z,1008.88
2018-01-13T10:47:55.870Z,1008.86
2018-01-13T10:49:05.698Z,1008.86
2018-01-13T10:50:15.741Z,1008.83
2018-01-13T10:51:25.569Z,1008.81
2018-01-13T10:52:35.356Z,1008.79
2018-01-13T10:53:45.422Z,1008.8
2018-01-13T10:54:55.209Z,1008.75
2018-01-13T10:56:05.007Z,1008.76
2018-01-13T10:57:14.796Z,1008.75
2018-01-13T10:58:24.819Z,1008.74
2018-01-13T10:59:34.877Z,1008.74
2018-01-13T11:00:44.979Z,1008.76
2018-01-13T11:01:55.802Z,1008.74
2018-01-13T11:03:05.655Z,1008.69
2018-01-13T11:04:15.738Z,1008.69
2018-01-13T11:05:25.786Z,1008.66
2018-01-13T11:06:35.843Z,1008.71
2018-01-13T11:07:46.018Z,1008.71
2018-01-13T11:08:55.822Z,1008.71
2018-01-13T11:10:05.862Z,1008.68
2018-01-13T11:11:15.913Z,1008.76
2018-01-13T11:12:25.740Z,1008.7
2018-01-13T11:13:35.551Z,1008.71
2018-01-13T11:14:45.623Z,1008.69
2018-01-13T11:15:55.671Z,1008.7
2018-01-13T11:17:05.500Z,1008.69
2018-01-13T11:18:15.561Z,1008.69
2018-01-13T11:19:25.620Z,1008.64
2018-01-13T11:20:35.988Z,1008.67
2018-01-13T11:21:46.070Z,1008.66
2018-01-13T11:22:56.437Z,1008.67
2018-01-13T11:24:06.491Z,1008.67
2018-01-13T11:25:16.030Z,1008.67
2018-01-13T11:26:26.074Z,1008.61
2018-01-13T11:27:35.863Z,1008.65
2018-01-13T11:28:45.917Z,1008.6
2018-01-13T11:29:55.961Z,1008.62
2018-01-13T11:31:06.029Z,1008.62
2018-01-13T11:32:16.102Z,1008.63
2018-01-13T11:33:25.903Z,1008.62
2018-01-13T11:34:35.694Z,1008.57
2018-01-13T11:35:45.749Z,1008.56
2018-01-13T11:36:56.063Z,1008.56
2018-01-13T11:38:07.268Z,1008.55
2018-01-13T11:39:17.350Z,1008.55
2018-01-13T11:40:27.414Z,1008.56
2018-01-13T11:41:37.236Z,1008.58
2018-01-13T11:42:46.771Z,1008.54
2018-01-13T11:43:56.637Z,1008.53
2018-01-13T11:45:06.701Z,1008.49
2018-01-13T11:46:16.755Z,1008.52
2018-01-13T11:47:26.801Z,1008.51
2018-01-13T11:48:36.581Z,1008.51
2018-01-13T11:49:46.626Z,1008.5
2018-01-13T11:50:56.452Z,1008.48
2018-01-13T11:52:06.499Z,1008.44
2018-01-13T11:53:16.296Z,1008.44
2018-01-13T11:54:26.080Z,1008.47
2018-01-13T11:55:36.179Z,1008.45
2018-01-13T11:56:46.221Z,1008.43
2018-01-13T11:57:56.263Z,1008.46
2018-01-13T11:59:06.303Z,1008.42
2018-01-13T12:00:16.356Z,1008.4
2018-01-13T12:01:26.471Z,1008.4
2018-01-13T12:02:36.294Z,1008.38
2018-01-13T12:03:46.403Z,1008.37
2018-01-13T12:04:56.519Z,1008.4
2018-01-13T12:06:06.571Z,1008.38
2018-01-13T12:07:16.661Z,1008.38
2018-01-13T12:08:26.723Z,1008.39
2018-01-13T12:09:36.782Z,1008.36
2018-01-13T12:10:46.833Z,1008.39
2018-01-13T12:11:56.885Z,1008.35
2018-01-13T12:13:06.709Z,1008.36
2018-01-13T12:14:16.757Z,1008.35
2018-01-13T12:15:26.824Z,1008.33
2018-01-13T12:16:36.671Z,1008.34
2018-01-13T12:17:46.723Z,1008.31
2018-01-13T12:18:56.770Z,1008.29
2018-01-13T12:20:06.559Z,1008.29
2018-01-13T12:21:16.363Z,1008.3
2018-01-13T12:22:26.159Z,1008.3
2018-01-13T12:23:37.520Z,1008.23
2018-01-13T12:24:47.359Z,1008.25
2018-01-13T12:25:57.149Z,1008.26
2018-01-13T12:27:07.217Z,1008.19
2018-01-13T12:28:17.261Z,1008.24
2018-01-13T12:29:27.303Z,1008.24
2018-01-13T12:30:37.142Z,1008.21
2018-01-13T12:31:47.184Z,1008.24
2018-01-13T12:32:58.538Z,1008.21
2018-01-13T12:34:08.328Z,1008.21
2018-01-13T12:35:18.118Z,1008.18
2018-01-13T12:36:28.185Z,1008.18
2018-01-13T12:37:37.960Z,1008.17
2018-01-13T12:38:47.737Z,1008.19
2018-01-13T12:39:57.603Z,1008.18
2018-01-13T12:41:07.677Z,1008.16
2018-01-13T12:42:17.229Z,1008.18
2018-01-13T12:43:27.269Z,1008.16
2018-01-13T12:44:37.327Z,1008.2
2018-01-13T12:45:47.409Z,1008.21
2018-01-13T12:46:57.461Z,1008.2
2018-01-13T12:48:07.301Z,1008.14
2018-01-13T12:49:16.830Z,1008.19
2018-01-13T12:50:26.868Z,1008.21
2018-01-13T12:51:36.927Z,1008.2
2018-01-13T12:52:46.992Z,1008.18
2018-01-13T12:53:57.049Z,1008.22
2018-01-13T12:55:07.110Z,1008.21
2018-01-13T12:56:17.159Z,1008.18
2018-01-13T12:57:27.221Z,1008.18
2018-01-13T12:58:37.264Z,1008.17
2018-01-13T12:59:47.329Z,1008.16
2018-01-13T13:00:57.396Z,1008.15
2018-01-13T13:02:07.454Z,1008.14
2018-01-13T13:03:18.895Z,1008.17
2018-01-13T13:04:28.703Z,1008.18
2018-01-13T13:05:38.748Z,1008.16
2018-01-13T13:06:48.812Z,1008.12
2018-01-13T13:07:58.656Z,1008.17
2018-01-13T13:09:08.718Z,1008.15
2018-01-13T13:10:18.497Z,1008.16
2018-01-13T13:11:28.554Z,1008.16
2018-01-13T13:12:38.664Z,1008.13
2018-01-13T13:13:48.701Z,1008.15
2018-01-13T13:14:58.815Z,1008.1
2018-01-13T13:16:08.619Z,1008.14
2018-01-13T13:17:18.718Z,1008.12
2018-01-13T13:18:28.773Z,1008.11
2018-01-13T13:19:38.590Z,1008.07
2018-01-13T13:20:48.390Z,1008.07
2018-01-13T13:21:58.182Z,1008.07
2018-01-13T13:23:07.969Z,1008.02
2018-01-13T13:24:18.000Z,1008.07
2018-01-13T13:25:28.085Z,1008.03
2018-01-13T13:26:38.140Z,1008
2018-01-13T13:27:48.206Z,1008.04
2018-01-13T13:28:58.350Z,1008.01
2018-01-13T13:30:08.413Z,1008.01
2018-01-13T13:31:18.207Z,1008
2018-01-13T13:32:28.253Z,1007.99
2018-01-13T13:33:38.031Z,1007.96
2018-01-13T13:34:47.565Z,1007.95
2018-01-13T13:35:57.615Z,1007.94
2018-01-13T13:37:07.666Z,1007.97
2018-01-13T13:38:17.462Z,1007.95
2018-01-13T13:39:27.524Z,1007.94
2018-01-13T13:40:37.644Z,1008
2018-01-13T13:41:48.273Z,1007.96
2018-01-13T13:42:58.336Z,1007.96
2018-01-13T13:44:08.383Z,1007.95
2018-01-13T13:45:18.436Z,1007.96
2018-01-13T13:46:28.249Z,1008.02
2018-01-13T13:47:38.295Z,1008.01
2018-01-13T13:48:48.343Z,1008.05
2018-01-13T13:49:58.398Z,1008.01
2018-01-13T13:51:08.506Z,1008.03
2018-01-13T13:52:18.314Z,1008.04
2018-01-13T13:53:28.362Z,1008.05
2018-01-13T13:54:38.415Z,1008.07
2018-01-13T13:55:48.488Z,1008.04
2018-01-13T13:56:58.529Z,1008.09
2018-01-13T13:58:08.601Z,1008.07
2018-01-13T13:59:18.699Z,1008.04
2018-01-13T14:00:28.777Z,1008.08
2018-01-13T14:01:38.839Z,1008.06
2018-01-13T14:02:48.994Z,1008.08
2018-01-13T14:03:59.066Z,1008.08
2018-01-13T14:05:09.177Z,1008.09
2018-01-13T14:06:18.973Z,1008.1
2018-01-13T14:07:29.040Z,1008.06
2018-01-13T14:08:38.906Z,1008.02
2018-01-13T14:09:48.956Z,1007.99
2018-01-13T14:11:01.667Z,1008.01
2018-01-13T14:12:11.480Z,1008.01
2018-01-13T14:13:21.513Z,1008.09
2018-01-13T14:14:31.592Z,1008.07
2018-01-13T14:15:41.628Z,1008.07
2018-01-13T14:16:51.665Z,1008.08
2018-01-13T14:18:01.702Z,1008.06
2018-01-13T14:19:11.224Z,1008.1
2018-01-13T14:20:20.760Z,1008.15
2018-01-13T14:21:30.878Z,1008.1
2018-01-13T14:22:40.379Z,1008.08
2018-01-13T14:23:50.161Z,1008.1
2018-01-13T14:25:00.495Z,1008.07
2018-01-13T14:26:10.316Z,1008.14
2018-01-13T14:27:23.038Z,1008.12
2018-01-13T14:28:33.092Z,1008.09
2018-01-13T14:29:42.914Z,1008.12
2018-01-13T14:30:52.749Z,1008.1
2018-01-13T14:32:02.797Z,1008.13
2018-01-13T14:33:12.903Z,1008.17
2018-01-13T14:34:22.947Z,1008.13
2018-01-13T14:35:32.992Z,1008.12
2018-01-13T14:36:42.818Z,1008.11
2018-01-13T14:37:52.862Z,1008.12
2018-01-13T14:39:02.916Z,1008.13
2018-01-13T14:40:12.978Z,1008.1
2018-01-13T14:41:23.041Z,1008.12
2018-01-13T14:42:33.092Z,1008.14